Time;durP1;ratioP1;P1;durP2;ratioP2;P2;SDS_P1;SDS_P2;PMS_P1;PMS_P2;Temp;Humidity;BMP_temperature;BMP_pressure;BME280_temperature;BME280_humidity;BME280_pressure;Samples;Min_cycle;Max_cycle;Signal;HPM_P1;HPM_P2
2023/07/25 00:00:33;;;;;;;3.92;2.25;;;;;;;13.57;86.28;100591.53;4945121;28;20039;-92
2023/07/25 00:02:59;;;;;;;4.28;2.08;;;;;;;13.57;87.83;100596.78;4938058;29;20407;-92
2023/07/25 00:05:24;;;;;;;4.40;2.20;;;;;;;13.53;88.49;100596.06;4943122;29;20035;-91
2023/07/25 00:07:49;;;;;;;3.65;1.90;;;;;;;13.51;88.91;100596.09;4946290;28;20095;-92
2023/07/25 00:10:15;;;;;;;3.65;1.98;;;;;;;13.52;88.65;100604.81;4944004;29;20047;-91
2023/07/25 00:12:41;;;;;;;3.60;2.13;;;;;;;13.50;88.15;100602.25;4941695;29;20059;-92
2023/07/25 00:15:06;;;;;;;4.65;2.03;;;;;;;13.50;88.35;100597.00;4935783;29;20158;-91
2023/07/25 00:17:32;;;;;;;3.65;2.00;;;;;;;13.52;88.67;100602.19;4937907;29;20023;-91
2023/07/25 00:19:57;;;;;;;2.95;1.88;;;;;;;13.51;89.05;100609.16;4945845;29;20038;-91
2023/07/25 00:22:22;;;;;;;3.45;1.92;;;;;;;13.49;89.72;100595.31;4947207;28;20431;-92
2023/07/25 00:24:48;;;;;;;4.35;1.98;;;;;;;13.45;89.20;100601.59;4945423;29;20046;-92
2023/07/25 00:27:13;;;;;;;4.25;1.92;;;;;;;13.42;88.38;100596.50;4941059;29;20042;-92
2023/07/25 00:29:39;;;;;;;3.90;2.00;;;;;;;13.42;88.38;100593.88;4939338;29;20027;-91
2023/07/25 00:32:04;;;;;;;3.80;2.25;;;;;;;13.40;88.31;100582.66;4939029;28;20107;-91
2023/07/25 00:34:29;;;;;;;4.13;2.60;;;;;;;13.39;88.59;100582.69;4946335;28;20028;-92
2023/07/25 00:36:55;;;;;;;4.93;1.92;;;;;;;13.37;88.71;100585.34;4944395;28;20065;-92
2023/07/25 00:39:20;;;;;;;4.57;2.35;;;;;;;13.36;88.80;100583.66;4939304;29;20098;-92
2023/07/25 00:41:45;;;;;;;4.32;2.50;;;;;;;13.35;88.79;100589.78;4944616;29;20035;-93
2023/07/25 00:44:11;;;;;;;4.75;2.10;;;;;;;13.30;89.34;100591.75;4939016;29;20095;-92
2023/07/25 00:46:36;;;;;;;2.97;2.10;;;;;;;13.27;89.55;100602.34;4947693;28;20020;-92
2023/07/25 00:49:04;;;;;;;3.08;1.88;;;;;;;13.23;89.76;100596.38;4947240;28;20506;-91
2023/07/25 00:51:30;;;;;;;3.70;2.00;;;;;;;13.18;89.56;100593.94;4942533;28;20078;-92
2023/07/25 00:53:55;;;;;;;2.78;1.80;;;;;;;13.14;90.20;100597.63;4945777;28;20027;-92
2023/07/25 00:56:21;;;;;;;3.38;2.10;;;;;;;13.08;90.50;100590.00;4943289;28;20024;-92
2023/07/25 00:58:47;;;;;;;3.42;2.10;;;;;;;13.05;90.36;100598.84;4946613;29;20065;-93
2023/07/25 01:01:12;;;;;;;9.13;2.58;;;;;;;13.05;90.58;100595.34;4944139;29;20175;-92
2023/07/25 01:03:38;;;;;;;2.97;1.98;;;;;;;13.06;90.53;100592.66;4939839;29;20031;-91
2023/07/25 01:06:05;;;;;;;5.43;2.35;;;;;;;13.03;90.52;100586.72;4943976;29;20381;-91
2023/07/25 01:08:31;;;;;;;3.17;2.05;;;;;;;12.97;90.37;100582.59;4939662;29;20530;-92
2023/07/25 01:10:56;;;;;;;3.65;2.40;;;;;;;12.90;90.77;100582.00;4942770;28;20131;-93
2023/07/25 01:13:22;;;;;;;3.75;2.60;;;;;;;12.82;90.63;100588.44;4945743;28;20034;-92
2023/07/25 01:15:53;;;;;;;4.10;2.40;;;;;;;12.79;90.89;100584.19;4938490;29;20063;-92
2023/07/25 01:18:19;;;;;;;3.05;2.20;;;;;;;12.79;91.02;100589.41;4941087;29;20463;-91
2023/07/25 01:20:47;;;;;;;3.42;2.03;;;;;;;12.79;90.60;100583.34;4938887;28;20043;-91
2023/07/25 01:23:13;;;;;;;2.88;2.00;;;;;;;12.78;91.35;100577.28;4937769;29;20085;-91
2023/07/25 01:25:38;;;;;;;2.70;2.05;;;;;;;12.78;91.20;100587.72;4941783;28;20019;-92
2023/07/25 01:28:04;;;;;;;3.08;1.90;;;;;;;12.76;91.08;100579.09;4938565;28;20032;-92
2023/07/25 01:30:30;;;;;;;3.88;2.35;;;;;;;12.73;91.25;100576.59;4939364;29;20031;-93
2023/07/25 01:32:56;;;;;;;3.72;2.08;;;;;;;12.68;91.64;100565.47;4940149;29;20483;-93
2023/07/25 01:35:21;;;;;;;4.53;2.20;;;;;;;12.63;91.33;100572.66;4940680;29;20059;-92
2023/07/25 01:37:46;;;;;;;4.20;2.20;;;;;;;12.64;91.94;100574.34;4940002;28;20043;-92
2023/07/25 01:40:12;;;;;;;3.97;2.22;;;;;;;12.62;92.30;100576.19;4939886;29;20037;-92
2023/07/25 01:42:37;;;;;;;4.38;2.30;;;;;;;12.60;92.35;100576.22;4941116;28;20459;-92
2023/07/25 01:45:03;;;;;;;4.47;2.40;;;;;;;12.57;92.56;100574.59;4949551;28;20043;-92
2023/07/25 01:47:28;;;;;;;4.03;2.40;;;;;;;12.55;92.55;100579.00;4941827;29;20475;-91
2023/07/25 01:49:53;;;;;;;3.03;2.13;;;;;;;12.53;92.27;100574.78;4938694;28;20033;-92
2023/07/25 01:52:19;;;;;;;4.78;2.60;;;;;;;12.54;92.36;100572.09;4935576;29;20395;-91
2023/07/25 01:54:44;;;;;;;3.35;2.58;;;;;;;12.54;92.33;100566.88;4936830;29;20024;-91
2023/07/25 01:57:10;;;;;;;4.25;2.65;;;;;;;12.55;92.16;100563.34;4946534;29;20097;-92
2023/07/25 01:59:35;;;;;;;3.92;2.33;;;;;;;12.54;91.79;100558.19;4941634;28;20035;-92
2023/07/25 02:02:00;;;;;;;4.25;2.70;;;;;;;12.47;91.70;100554.94;4936904;28;20031;-91
2023/07/25 02:04:26;;;;;;;5.28;2.70;;;;;;;12.41;92.22;100557.81;4938972;29;20471;-91
2023/07/25 02:06:51;;;;;;;4.38;3.03;;;;;;;12.40;92.60;100545.69;4948109;29;20064;-92
2023/07/25 02:09:16;;;;;;;4.22;2.80;;;;;;;12.41;92.70;100563.88;4946008;28;20070;-91
2023/07/25 02:11:42;;;;;;;3.78;2.38;;;;;;;12.40;93.13;100553.50;4947589;29;20055;-91
2023/07/25 02:14:07;;;;;;;4.82;2.58;;;;;;;12.37;92.76;100556.22;4943917;28;20506;-91
2023/07/25 02:16:36;;;;;;;3.90;2.50;;;;;;;12.37;92.90;100557.09;4936964;28;20042;-92
2023/07/25 02:19:02;;;;;;;3.58;2.63;;;;;;;12.37;93.49;100558.84;4947211;29;20041;-92
2023/07/25 02:21:27;;;;;;;6.60;2.75;;;;;;;12.36;93.59;100554.53;4942733;28;20036;-92
2023/07/25 02:23:53;;;;;;;4.35;2.80;;;;;;;12.33;93.61;100554.63;4944180;29;20501;-92
2023/07/25 02:26:18;;;;;;;5.93;2.72;;;;;;;12.30;93.31;100551.22;4948105;28;20530;-92
2023/07/25 02:28:43;;;;;;;5.40;2.60;;;;;;;12.29;93.60;100544.34;4942596;29;20027;-92
2023/07/25 02:31:08;;;;;;;4.85;2.70;;;;;;;12.27;93.81;100551.38;4957969;28;20090;-91
2023/07/25 02:33:34;;;;;;;4.88;2.70;;;;;;;12.27;93.62;100550.50;4942800;28;20387;-92
2023/07/25 02:35:59;;;;;;;3.72;2.78;;;;;;;12.27;93.49;100548.75;4934110;29;20467;-91
2023/07/25 02:38:25;;;;;;;4.18;2.60;;;;;;;12.28;93.66;100553.06;4935155;29;20019;-91
2023/07/25 02:40:50;;;;;;;5.95;3.00;;;;;;;12.27;93.50;100548.75;4935465;29;20387;-92
2023/07/25 02:43:15;;;;;;;4.45;2.75;;;;;;;12.25;93.68;100547.97;4946589;29;20071;-92
2023/07/25 02:45:40;;;;;;;3.90;2.95;;;;;;;12.23;93.51;100544.56;4937129;29;20102;-92
2023/07/25 02:48:06;;;;;;;6.22;3.03;;;;;;;12.24;93.78;100545.41;4939441;29;20032;-91
2023/07/25 02:50:31;;;;;;;3.50;2.92;;;;;;;12.24;93.67;100548.00;4941572;28;20023;-92
2023/07/25 02:52:56;;;;;;;5.60;3.13;;;;;;;12.25;93.68;100550.56;4948594;28;20027;-92
2023/07/25 02:55:21;;;;;;;4.40;2.97;;;;;;;12.25;93.47;100547.97;4941008;28;20038;-91
2023/07/25 02:57:47;;;;;;;6.30;3.00;;;;;;;12.24;93.37;100550.63;4941319;29;20046;-91
2023/07/25 03:00:13;;;;;;;5.28;2.80;;;;;;;12.21;93.01;100554.19;4951707;28;20506;-92
2023/07/25 03:02:38;;;;;;;4.63;2.70;;;;;;;12.21;93.38;100545.53;4938785;28;20479;-93
2023/07/25 03:05:04;;;;;;;5.18;2.92;;;;;;;12.18;93.23;100545.66;4950919;28;20073;-92
2023/07/25 03:07:29;;;;;;;4.30;2.80;;;;;;;12.16;93.36;100540.47;4942445;28;20032;-92
2023/07/25 03:09:54;;;;;;;4.43;2.70;;;;;;;12.13;93.29;100548.41;4941632;28;20036;-92
2023/07/25 03:12:19;;;;;;;4.93;2.70;;;;;;;12.11;92.66;100547.63;4939004;29;20075;-92
2023/07/25 03:14:45;;;;;;;4.22;2.70;;;;;;;12.12;93.11;100544.97;4943878;28;20407;-91
2023/07/25 03:17:10;;;;;;;4.57;2.60;;;;;;;12.11;93.36;100545.84;4946469;28;20038;-92
2023/07/25 03:19:35;;;;;;;7.28;2.80;;;;;;;12.12;93.32;100541.50;4944891;29;20095;-92
2023/07/25 03:22:01;;;;;;;5.32;3.25;;;;;;;12.13;93.41;100540.56;4943543;29;20032;-91
2023/07/25 03:24:26;;;;;;;5.25;3.28;;;;;;;12.13;92.78;100549.25;4941503;29;20031;-91
2023/07/25 03:26:51;;;;;;;5.32;3.00;;;;;;;12.12;93.22;100539.75;4948076;29;20031;-92
2023/07/25 03:29:16;;;;;;;4.25;3.00;;;;;;;12.13;93.51;100543.19;4946449;28;20130;-92
2023/07/25 03:31:42;;;;;;;4.25;3.00;;;;;;;12.13;93.09;100546.66;4939412;29;20462;-92
2023/07/25 03:34:07;;;;;;;6.07;3.22;;;;;;;12.12;93.08;100542.34;4949018;29;20034;-92
2023/07/25 03:36:33;;;;;;;3.53;2.83;;;;;;;12.10;92.84;100546.75;4937844;28;20031;-92
2023/07/25 03:38:58;;;;;;;5.05;3.08;;;;;;;12.06;93.27;100546.94;4941590;29;20480;-92
2023/07/25 03:41:23;;;;;;;3.95;3.05;;;;;;;12.04;93.65;100546.97;4939079;28;20387;-91
2023/07/25 03:43:48;;;;;;;5.70;3.20;;;;;;;12.06;93.67;100549.53;4938147;28;20032;-92
2023/07/25 03:46:14;;;;;;;4.68;3.20;;;;;;;12.06;93.78;100546.94;4949561;29;20104;-91
2023/07/25 03:48:39;;;;;;;6.40;3.42;;;;;;;12.07;93.79;100544.25;4950495;29;20399;-91
2023/07/25 03:51:04;;;;;;;5.00;2.97;;;;;;;12.07;93.73;100546.03;4941562;28;20035;-92
2023/07/25 03:53:29;;;;;;;4.80;2.97;;;;;;;12.06;93.72;100533.91;4939134;28;20082;-91
2023/07/25 03:55:55;;;;;;;7.05;3.28;;;;;;;12.07;92.90;100543.44;4938349;29;20964;-92
2023/07/25 03:58:20;;;;;;;5.97;3.65;;;;;;;12.01;92.78;100549.72;4937390;29;20388;-92
2023/07/25 04:00:45;;;;;;;5.38;3.05;;;;;;;11.97;93.17;100548.09;4943855;29;20039;-91
2023/07/25 04:03:10;;;;;;;4.97;2.95;;;;;;;11.93;93.21;100547.38;4937629;29;20118;-92
2023/07/25 04:05:36;;;;;;;5.07;3.08;;;;;;;11.90;93.56;100544.88;4940142;28;20034;-91
2023/07/25 04:08:01;;;;;;;3.78;2.63;;;;;;;11.91;94.03;100543.97;4937862;29;20368;-92
2023/07/25 04:10:26;;;;;;;3.72;2.72;;;;;;;11.91;94.33;100549.16;4945786;28;20043;-92
2023/07/25 04:12:52;;;;;;;4.00;2.92;;;;;;;11.92;94.65;100550.00;4944656;28;20032;-92
2023/07/25 04:15:17;;;;;;;3.75;2.80;;;;;;;11.93;94.92;100549.09;4939911;29;20032;-91
2023/07/25 04:17:43;;;;;;;4.97;3.00;;;;;;;11.94;94.91;100548.19;4937219;29;20045;-91
2023/07/25 04:20:08;;;;;;;5.53;2.80;;;;;;;11.94;94.94;100549.06;4940974;29;20035;-92
2023/07/25 04:22:33;;;;;;;5.35;2.95;;;;;;;11.95;95.23;100550.78;4949061;28;20110;-91
2023/07/25 04:24:59;;;;;;;6.60;3.20;;;;;;;11.97;95.44;100532.44;4946743;28;20027;-92
2023/07/25 04:27:24;;;;;;;3.80;2.72;;;;;;;11.98;95.39;100537.63;4937950;29;20368;-92
2023/07/25 04:29:49;;;;;;;3.58;2.75;;;;;;;11.99;95.72;100541.09;4937385;29;20043;-91
2023/07/25 04:32:15;;;;;;;4.22;2.85;;;;;;;12.01;95.31;100548.84;4941843;29;20389;-92
2023/07/25 04:34:40;;;;;;;4.65;2.88;;;;;;;12.03;95.67;100553.13;4942526;28;20039;-92
2023/07/25 04:37:05;;;;;;;4.38;2.75;;;;;;;12.03;95.21;100549.66;4939254;29;20554;-91
2023/07/25 04:39:31;;;;;;;5.53;3.40;;;;;;;12.05;95.14;100548.69;4941253;29;20043;-91
2023/07/25 04:41:56;;;;;;;4.70;3.20;;;;;;;12.05;95.11;100547.84;4949874;29;20038;-91
2023/07/25 04:44:21;;;;;;;6.50;3.28;;;;;;;12.08;95.49;100552.94;4937200;29;20031;-91
2023/07/25 04:46:46;;;;;;;5.00;3.25;;;;;;;12.11;95.36;100560.66;4940543;28;20505;-91
2023/07/25 04:49:12;;;;;;;5.65;3.47;;;;;;;12.12;95.44;100562.38;4938671;29;20032;-91
2023/07/25 04:51:38;;;;;;;6.18;3.50;;;;;;;12.14;95.38;100560.53;4940018;28;20122;-91
2023/07/25 04:54:03;;;;;;;6.25;3.63;;;;;;;12.16;95.35;100552.66;4938539;29;20034;-92
2023/07/25 04:56:29;;;;;;;4.80;3.28;;;;;;;12.18;95.05;100556.06;4943395;29;20035;-91
2023/07/25 04:58:54;;;;;;;5.15;3.60;;;;;;;12.19;95.05;100569.03;4957800;28;20031;-91
2023/07/25 05:01:19;;;;;;;6.22;3.50;;;;;;;12.23;94.94;100560.22;4939254;28;20043;-91
2023/07/25 05:03:44;;;;;;;7.05;3.60;;;;;;;12.27;94.81;100553.97;4940374;29;20041;-90
2023/07/25 05:06:11;;;;;;;5.70;3.72;;;;;;;12.30;94.67;100553.00;4941009;28;20032;-92
2023/07/25 05:08:36;;;;;;;6.30;3.95;;;;;;;12.33;94.45;100552.88;4939529;29;20059;-88
2023/07/25 05:11:02;;;;;;;5.32;3.60;;;;;;;12.37;94.87;100553.63;4943445;29;20074;-93
2023/07/25 05:13:27;;;;;;;6.15;3.80;;;;;;;12.41;94.17;100552.59;4943549;28;20043;-92
2023/07/25 05:15:52;;;;;;;4.97;3.38;;;;;;;12.47;94.45;100546.28;4944038;29;20063;-93
2023/07/25 05:18:18;;;;;;;5.43;3.58;;;;;;;12.52;94.74;100544.38;4939578;28;20039;-92
2023/07/25 05:20:43;;;;;;;6.28;3.75;;;;;;;12.59;94.17;100561.47;4944428;28;20377;-92
2023/07/25 05:23:09;;;;;;;5.95;3.42;;;;;;;12.65;94.50;100562.97;4941858;28;20031;-91
2023/07/25 05:25:34;;;;;;;6.28;3.78;;;;;;;12.70;93.91;100554.09;4940155;28;20111;-91
2023/07/25 05:27:59;;;;;;;6.60;3.60;;;;;;;12.79;93.61;100555.47;4941064;29;20102;-91
2023/07/25 05:30:24;;;;;;;4.70;3.30;;;;;;;12.84;93.24;100550.91;4945531;28;20034;-92
2023/07/25 05:32:50;;;;;;;4.78;3.50;;;;;;;12.89;92.92;100554.19;4934984;29;20042;-92
2023/07/25 05:35:16;;;;;;;6.45;3.38;;;;;;;12.96;93.26;100561.78;4943584;28;20039;-91
2023/07/25 05:37:41;;;;;;;5.78;3.35;;;;;;;13.01;94.08;100547.63;4947159;28;20032;-91
2023/07/25 05:40:07;;;;;;;8.60;3.60;;;;;;;13.08;93.55;100556.06;4943890;29;20088;-92
2023/07/25 05:42:32;;;;;;;5.63;3.10;;;;;;;13.11;92.86;100553.34;4937742;28;20035;-91
2023/07/25 05:44:59;;;;;;;5.38;3.30;;;;;;;13.18;92.92;100562.59;4940465;29;20123;-92
2023/07/25 05:47:25;;;;;;;5.07;3.33;;;;;;;13.23;92.00;100557.22;4946835;29;20035;-92
2023/07/25 05:49:50;;;;;;;5.05;3.20;;;;;;;13.28;92.55;100560.44;4937112;28;20028;-91
2023/07/25 05:52:16;;;;;;;6.53;3.17;;;;;;;13.32;91.45;100571.66;4938842;29;20040;-93
2023/07/25 05:54:43;;;;;;;7.20;3.25;;;;;;;13.36;91.26;100570.59;4938461;29;20039;-92
2023/07/25 05:57:08;;;;;;;5.63;3.30;;;;;;;13.39;91.51;100567.00;4935646;29;20159;-92
2023/07/25 05:59:33;;;;;;;5.40;2.80;;;;;;;13.42;90.39;100580.81;4937657;29;20118;-91
2023/07/25 06:01:58;;;;;;;7.53;3.10;;;;;;;13.43;90.53;100579.03;4935563;29;20024;-91
2023/07/25 06:04:24;;;;;;;5.78;2.92;;;;;;;13.43;91.02;100579.91;4934523;29;20035;-92
2023/07/25 06:06:49;;;;;;;5.45;2.95;;;;;;;13.45;89.90;100575.47;4936997;29;20459;-92
2023/07/25 06:09:15;;;;;;;7.85;2.90;;;;;;;13.46;89.69;100579.78;4937570;28;20035;-92
2023/07/25 06:11:40;;;;;;;6.28;2.85;;;;;;;13.49;90.26;100576.19;4944364;29;20579;-92
2023/07/25 06:14:06;;;;;;;4.57;2.58;;;;;;;13.49;89.83;100577.03;4942817;28;20122;-92
2023/07/25 06:16:31;;;;;;;6.10;2.75;;;;;;;13.48;89.93;100584.94;4936297;29;20035;-92
2023/07/25 06:18:56;;;;;;;5.00;3.20;;;;;;;13.49;90.93;100579.63;4939083;29;20506;-92
2023/07/25 06:21:22;;;;;;;5.45;2.90;;;;;;;13.50;90.05;100577.88;4948786;29;20043;-91
2023/07/25 06:23:47;;;;;;;5.65;2.70;;;;;;;13.47;89.48;100573.66;4936038;28;20055;-92
2023/07/25 06:26:12;;;;;;;4.35;2.70;;;;;;;13.48;89.13;100583.19;4934825;29;20030;-92
2023/07/25 06:28:37;;;;;;;5.07;2.53;;;;;;;13.53;90.22;100580.38;4935500;28;20206;-92
2023/07/25 06:31:03;;;;;;;6.95;2.80;;;;;;;13.57;90.28;100587.19;4937042;29;20034;-92
2023/07/25 06:33:28;;;;;;;4.82;2.47;;;;;;;13.61;89.79;100580.88;4944297;28;20039;-92
2023/07/25 06:35:54;;;;;;;5.32;2.40;;;;;;;13.65;89.16;100584.25;4937211;29;20035;-92
2023/07/25 06:38:19;;;;;;;5.90;2.30;;;;;;;13.66;88.97;100576.31;4940026;28;20027;-91
2023/07/25 06:40:44;;;;;;;6.45;2.38;;;;;;;13.67;88.47;100590.22;4948287;29;20555;-93
2023/07/25 06:43:10;;;;;;;5.75;2.42;;;;;;;13.69;88.04;100590.16;4944050;28;20035;-92
2023/07/25 06:45:35;;;;;;;6.22;2.50;;;;;;;13.70;89.14;100589.25;4940064;29;20040;-93
2023/07/25 06:48:00;;;;;;;6.07;3.13;;;;;;;13.73;90.01;100582.13;4939993;29;20047;-92
2023/07/25 06:50:25;;;;;;;5.57;2.80;;;;;;;13.79;90.40;100599.31;4934871;29;20078;-92
2023/07/25 06:52:51;;;;;;;8.02;2.85;;;;;;;13.84;89.80;100599.09;4940039;29;20031;-92
2023/07/25 06:55:19;;;;;;;6.25;2.58;;;;;;;13.89;89.46;100584.06;4940664;29;20054;-92
2023/07/25 06:57:44;;;;;;;5.85;3.08;;;;;;;13.91;89.51;100593.56;4941972;29;20130;-91
2023/07/25 07:00:10;;;;;;;5.63;3.10;;;;;;;13.94;88.65;100595.19;4947156;29;20535;-92
2023/07/25 07:02:35;;;;;;;6.65;2.78;;;;;;;13.96;88.32;100595.97;4939233;29;20027;-92
2023/07/25 07:05:01;;;;;;;6.30;2.78;;;;;;;13.99;88.71;100592.38;4941206;29;20023;-91
2023/07/25 07:07:26;;;;;;;6.28;3.00;;;;;;;14.03;88.56;100593.94;4941378;28;20589;-91
2023/07/25 07:09:51;;;;;;;6.72;3.05;;;;;;;14.05;88.15;100592.94;4947571;29;20395;-92
2023/07/25 07:12:16;;;;;;;7.68;3.00;;;;;;;14.11;89.16;100603.13;4935212;28;20048;-92
2023/07/25 07:14:42;;;;;;;5.35;2.70;;;;;;;14.22;89.85;100599.19;4938732;29;20089;-93
2023/07/25 07:17:07;;;;;;;8.98;2.95;;;;;;;14.27;88.05;100598.06;4939546;29;20040;-92
2023/07/25 07:19:32;;;;;;;6.35;2.83;;;;;;;14.33;90.58;100596.94;4943828;28;20061;-92
2023/07/25 07:21:58;;;;;;;4.20;2.50;;;;;;;14.40;91.67;100603.59;4946764;29;20102;-92
2023/07/25 07:24:23;;;;;;;6.80;2.78;;;;;;;14.41;88.35;100607.91;4946933;28;20070;-86
2023/07/25 07:26:48;;;;;;;7.68;3.30;;;;;;;14.40;88.13;100608.81;4947364;28;20026;-91
2023/07/25 07:29:13;;;;;;;7.43;2.67;;;;;;;14.45;88.31;100611.22;4942438;28;20042;-91
2023/07/25 07:31:39;;;;;;;5.47;2.78;;;;;;;14.54;87.24;100610.81;4939514;28;20105;-91
2023/07/25 07:34:16;;;;;;;6.00;2.58;;;;;;;14.67;89.29;100611.09;4937574;28;20443;-91
2023/07/25 07:36:42;;;;;;;5.80;2.80;;;;;;;14.80;89.85;100600.06;4941511;28;20063;-92
2023/07/25 07:39:07;;;;;;;5.25;2.38;;;;;;;14.94;91.36;100605.50;4944254;29;20082;-91
2023/07/25 07:41:33;;;;;;;7.10;2.60;;;;;;;15.01;86.10;100611.28;4942822;29;20035;-92
2023/07/25 07:43:58;;;;;;;4.70;2.50;;;;;;;15.09;89.09;100614.41;4943718;28;20029;-91
2023/07/25 07:46:27;;;;;;;3.45;1.80;;;;;;;15.15;86.98;100618.50;4942215;28;20038;-92
2023/07/25 07:48:52;;;;;;;4.72;1.77;;;;;;;15.16;85.28;100617.56;4942825;29;20039;-91
2023/07/25 07:51:18;;;;;;;6.15;2.20;;;;;;;15.22;88.81;100614.63;4940783;29;20402;-91
2023/07/25 07:53:43;;;;;;;5.25;1.70;;;;;;;15.28;88.45;100606.47;4939857;29;20063;-92
2023/07/25 07:56:10;;;;;;;3.00;1.63;;;;;;;15.32;84.79;100613.28;4942912;28;20033;-92
2023/07/25 07:58:35;;;;;;;4.82;1.58;;;;;;;15.39;84.33;100631.28;4942160;29;20024;-92
2023/07/25 08:01:00;;;;;;;4.75;1.80;;;;;;;15.43;81.05;100630.22;4947668;28;20165;-92
2023/07/25 08:03:26;;;;;;;3.55;1.30;;;;;;;15.52;84.64;100624.53;4942436;29;20853;-91
2023/07/25 08:05:57;;;;;;;2.33;1.40;;;;;;;15.56;86.06;100628.69;4943603;28;20047;-92
2023/07/25 08:08:23;;;;;;;4.82;1.33;;;;;;;15.56;83.99;100631.31;4938275;29;20034;-91
2023/07/25 08:10:48;;;;;;;3.90;1.40;;;;;;;15.53;84.17;100639.34;4930487;29;20051;-91
2023/07/25 08:13:13;;;;;;;5.15;1.40;;;;;;;15.50;84.59;100625.53;4944805;29;20035;-91
2023/07/25 08:15:38;;;;;;;4.03;1.30;;;;;;;15.48;82.94;100623.00;4954515;28;20439;-91
2023/07/25 08:18:04;;;;;;;5.10;1.30;;;;;;;15.45;77.11;100634.50;4940840;29;20033;-91
2023/07/25 08:20:29;;;;;;;2.78;1.10;;;;;;;15.49;83.04;100629.94;4936132;28;20046;-93
2023/07/25 08:22:54;;;;;;;3.83;1.23;;;;;;;15.52;83.82;100635.03;4937695;29;20114;-92
2023/07/25 08:25:22;;;;;;;5.47;1.30;;;;;;;15.52;83.40;100648.13;4938821;29;20030;-92
2023/07/25 08:27:47;;;;;;;3.92;1.30;;;;;;;15.48;83.34;100639.56;4940088;29;20529;-91
2023/07/25 08:30:12;;;;;;;4.63;1.00;;;;;;;15.44;81.35;100648.53;4944452;28;20035;-92
2023/07/25 08:32:37;;;;;;;3.80;1.00;;;;;;;15.44;82.38;100642.41;4940189;28;20035;-91
2023/07/25 08:35:03;;;;;;;3.20;1.00;;;;;;;15.39;77.83;100649.66;4943571;29;20035;-90
2023/07/25 08:37:28;;;;;;;4.70;1.40;;;;;;;15.37;78.94;100651.53;4939935;29;20063;-92
2023/07/25 08:39:54;;;;;;;3.83;1.10;;;;;;;15.38;77.92;100655.81;4938378;28;20546;-93
2023/07/25 08:42:20;;;;;;;3.83;1.10;;;;;;;15.37;78.21;100652.34;4937143;29;20027;-91
2023/07/25 08:44:49;;;;;;;3.45;1.38;;;;;;;15.42;78.39;100655.59;4950019;28;20042;-92
2023/07/25 08:47:19;;;;;;;3.42;1.02;;;;;;;15.53;78.82;100662.94;4941342;28;20026;-91
2023/07/25 08:49:47;;;;;;;5.38;1.25;;;;;;;15.63;79.07;100655.44;4941706;28;20555;-91
2023/07/25 08:52:16;;;;;;;2.92;0.90;;;;;;;15.69;76.95;100656.94;4940372;28;20472;-91
2023/07/25 08:54:43;;;;;;;6.50;1.10;;;;;;;15.80;78.92;100661.66;4942449;29;20035;-91
2023/07/25 08:57:09;;;;;;;3.03;1.30;;;;;;;15.86;80.46;100664.84;4944377;28;20075;-91
2023/07/25 08:59:35;;;;;;;3.63;1.10;;;;;;;15.91;79.25;100668.06;4948232;29;20023;-92
2023/07/25 09:02:01;;;;;;;3.95;0.95;;;;;;;15.88;72.93;100670.84;4938500;28;20110;-91
2023/07/25 09:04:27;;;;;;;2.60;0.90;;;;;;;15.92;79.36;100664.50;4937648;29;20027;-91
2023/07/25 09:06:53;;;;;;;4.50;0.98;;;;;;;15.98;75.13;100665.13;4939525;29;20465;-92
2023/07/25 09:09:18;;;;;;;3.38;0.98;;;;;;;15.98;74.29;100671.22;4941159;29;20126;-92
2023/07/25 09:11:44;;;;;;;2.28;1.02;;;;;;;16.02;75.75;100670.13;4938577;28;21275;-90
2023/07/25 09:14:10;;;;;;;3.17;1.02;;;;;;;16.07;76.33;100672.50;4946087;28;20038;-90
2023/07/25 09:16:36;;;;;;;3.03;0.82;;;;;;;16.07;72.72;100677.75;4947058;28;20061;-89
2023/07/25 09:19:01;;;;;;;3.15;1.00;;;;;;;16.05;72.45;100679.63;4941939;28;20416;-90
2023/07/25 09:21:27;;;;;;;4.80;0.90;;;;;;;15.99;71.30;100679.94;4945157;28;20086;-90
2023/07/25 09:23:57;;;;;;;5.30;1.20;;;;;;;15.90;70.88;100679.47;4944974;28;20386;-90
2023/07/25 09:26:25;;;;;;;3.85;1.00;;;;;;;15.91;73.33;100683.78;4948357;28;20019;-89
2023/07/25 09:28:58;;;;;;;3.63;1.05;;;;;;;15.90;71.96;100681.25;4947077;28;20035;-89
2023/07/25 09:31:25;;;;;;;2.92;0.95;;;;;;;15.90;72.75;100676.84;4947343;28;20390;-90
2023/07/25 09:33:52;;;;;;;2.58;0.90;;;;;;;15.85;68.31;100681.50;4940895;28;21116;-90
2023/07/25 09:36:18;;;;;;;3.65;0.90;;;;;;;15.84;70.15;100676.28;4944439;28;20059;-91
2023/07/25 09:38:54;;;;;;;3.35;0.95;;;;;;;15.87;72.85;100682.28;4946762;28;20031;-89
2023/07/25 09:41:23;;;;;;;3.08;0.95;;;;;;;15.96;71.74;100688.81;4944922;28;20034;-89
2023/07/25 09:43:50;;;;;;;2.53;0.82;;;;;;;16.01;69.85;100684.16;4945369;28;20023;-90
2023/07/25 09:46:15;;;;;;;2.72;0.90;;;;;;;16.08;74.59;100679.47;4946634;28;20028;-89
2023/07/25 09:48:46;;;;;;;1.85;0.70;;;;;;;16.11;68.74;100683.72;4942731;28;20059;-90
2023/07/25 09:51:12;;;;;;;2.25;0.77;;;;;;;16.19;68.57;100687.66;4947701;28;20063;-89
2023/07/25 09:53:38;;;;;;;4.93;1.05;;;;;;;16.31;69.75;100675.63;4946999;28;20114;-89
2023/07/25 09:56:04;;;;;;;3.65;1.02;;;;;;;16.36;71.59;100680.66;4947528;28;20027;-89
2023/07/25 09:58:30;;;;;;;3.35;1.30;;;;;;;16.39;73.02;100688.38;4944985;28;20027;-89
2023/07/25 10:00:57;;;;;;;3.10;0.80;;;;;;;16.37;74.62;100685.00;4943538;28;20419;-88
2023/07/25 10:03:23;;;;;;;2.65;0.90;;;;;;;16.32;73.85;100687.81;4943405;28;20157;-89
2023/07/25 10:05:49;;;;;;;3.05;0.90;;;;;;;16.33;72.70;100689.53;4943618;28;20085;-88
2023/07/25 10:08:16;;;;;;;3.95;0.90;;;;;;;16.36;69.01;100683.28;4948620;28;20477;-89
2023/07/25 10:10:42;;;;;;;4.22;1.40;;;;;;;16.42;69.71;100690.81;4949269;28;20483;-88
2023/07/25 10:13:09;;;;;;;5.25;1.00;;;;;;;16.47;68.33;100685.34;4948447;28;20042;-90
2023/07/25 10:15:35;;;;;;;2.72;0.70;;;;;;;16.54;69.73;100686.69;4945999;28;20031;-88
2023/07/25 10:18:16;;;;;;;3.05;0.80;;;;;;;16.64;73.27;100681.81;4944389;28;20106;-88
2023/07/25 10:20:41;;;;;;;4.07;1.00;;;;;;;16.72;72.19;100684.00;4942867;28;20497;-89
2023/07/25 10:23:09;;;;;;;2.90;0.70;;;;;;;16.76;68.63;100689.00;4943802;28;20117;-91
2023/07/25 10:25:34;;;;;;;1.88;0.80;;;;;;;16.83;67.95;100677.25;4943163;28;20066;-89
2023/07/25 10:28:01;;;;;;;1.75;0.80;;;;;;;16.89;66.84;100675.22;4944582;28;20483;-89
2023/07/25 10:30:29;;;;;;;2.05;0.75;;;;;;;16.98;68.67;100677.38;4942670;28;20483;-90
2023/07/25 10:32:59;;;;;;;2.95;0.80;;;;;;;17.03;67.04;100677.97;4946394;28;20050;-92
2023/07/25 10:35:54;;;;;;;4.85;0.95;;;;;;;17.14;67.34;100674.75;4945773;28;20031;-91
2023/07/25 10:38:40;;;;;;;2.65;0.80;;;;;;;17.17;67.79;100679.81;4938632;28;20070;-91
2023/07/25 10:41:09;;;;;;;2.75;0.70;;;;;;;17.21;63.21;100678.72;4942157;28;20042;-90
2023/07/25 10:43:48;;;;;;;3.40;0.77;;;;;;;17.23;65.53;100689.16;4946311;28;20034;-91
2023/07/25 10:46:26;;;;;;;1.95;0.68;;;;;;;17.14;63.67;100685.25;4942889;28;20042;-91
2023/07/25 10:49:16;;;;;;;2.97;0.80;;;;;;;17.06;66.02;100685.69;4941374;28;20039;-92
2023/07/25 10:51:52;;;;;;;2.72;1.00;;;;;;;17.01;63.89;100686.84;4938480;28;20047;-92
2023/07/25 10:54:18;;;;;;;1.65;0.73;;;;;;;16.97;64.81;100683.56;4939406;28;20180;-94
2023/07/25 10:57:13;;;;;;;1.77;0.60;;;;;;;16.93;64.44;100692.50;4941732;28;20045;-90
2023/07/25 11:00:04;;;;;;;3.03;0.80;;;;;;;16.88;63.82;100692.75;4940879;28;20042;-90
2023/07/25 11:02:34;;;;;;;1.88;0.75;;;;;;;16.82;64.90;100686.06;4941089;28;20500;-89
2023/07/25 11:05:11;;;;;;;1.58;0.60;;;;;;;16.81;63.54;100688.78;4942162;28;20431;-91
2023/07/25 11:07:37;;;;;;;3.05;0.80;;;;;;;16.77;59.90;100682.00;4946384;28;20121;-90
2023/07/25 11:10:03;;;;;;;4.03;0.80;;;;;;;16.75;58.66;100679.44;4944097;28;20034;-90
2023/07/25 11:12:32;;;;;;;2.42;0.70;;;;;;;16.78;64.27;100673.19;4947636;28;20051;-91
2023/07/25 11:14:57;;;;;;;2.85;0.80;;;;;;;16.81;67.27;100665.16;4945412;28;20051;-91
2023/07/25 11:17:29;;;;;;;2.05;0.70;;;;;;;16.83;63.91;100672.00;4948262;28;20082;-92
2023/07/25 11:20:15;;;;;;;2.20;0.60;;;;;;;16.88;63.05;100663.03;4948123;28;20040;-91